Flight Track Log - Related Links

Times and Time Zones

All times are in EST time to prevent confusion due to time zone crossing. See the N274SR flight status page for this flight to view local times or setup timezone preferences in your user account.

Time Position Orientation Groundspeed Altitude Reporting Facility
EST Latitude Longitude Course Direction KTS MPH feet Rate Location/Type
Wed 03:28:13 PM 43.4567 -84.1422 217° Southwest 123 142 4,800  Level Cleveland Center
Wed 03:29:15 PM 43.4297 -84.1744 221° Southwest 120 138 6,000 1,210 Climbing Cleveland Center
Wed 03:30:17 PM 43.4028 -84.2075 222° Southwest 131 151 7,300 968 Climbing Cleveland Center
Wed 03:31:00 PM 43.3416 -84.3019 219° Southwest  Level Estimated
Wed 03:31:19 PM 43.3708 -84.2442 220° Southwest 141 162 8,000  Level Cleveland Center
Wed 03:32:00 PM 43.3096 -84.3388 220° Southwest  Level Estimated
Wed 03:32:21 PM 43.3342 -84.2875 221° Southwest 173 199 8,000  Level Cleveland Center
Wed 03:33:23 PM 43.2953 -84.3333 221° Southwest 171 197 8,000  Level Cleveland Center
Wed 03:34:25 PM 43.2600 -84.3764 222° Southwest 162 186 8,000  Level Cleveland Center
Wed 03:35:27 PM 43.2231 -84.4194 220° Southwest 167 192 8,000  Level Cleveland Center
Wed 03:36:29 PM 43.1861 -84.4619 220° Southwest 167 192 8,000  Level Cleveland Center
Wed 03:37:31 PM 43.1519 -84.5019 221° Southwest 167 192 8,000  Level Cleveland Center
Wed 03:38:33 PM 43.1150 -84.5444 220° Southwest 168 193 8,000  Level Cleveland Center
Wed 03:39:35 PM 43.0778 -84.5875 220° Southwest 168 193 8,000  Level Cleveland Center
Wed 03:40:37 PM 43.0411 -84.6308 221° Southwest 167 192 8,000  Level Cleveland Center
Wed 03:41:39 PM 43.0036 -84.6733 220° Southwest 167 192 8,000  Level Cleveland Center
Wed 03:42:41 PM 42.9661 -84.7169 220° Southwest 172 198 8,000  Level Cleveland Center
Wed 03:43:43 PM 42.9289 -84.7611 221° Southwest 169 194 8,000  Level Cleveland Center
Wed 03:44:45 PM 42.8947 -84.8000 220° Southwest 176 203 8,000  Level Cleveland Center
Wed 03:45:56 PM 42.8514 -84.8506 221° Southwest 171 197 8,000  Level Chicago Center
Wed 03:46:57 PM 42.8150 -84.8925 220° Southwest 171 197 8,000  Level Chicago Center
Wed 03:47:59 PM 42.7781 -84.9336 219° Southwest 172 198 8,000  Level Chicago Center
Wed 03:49:01 PM 42.7419 -84.9761 221° Southwest 172 198 8,000  Level Chicago Center
Wed 03:50:02 PM 42.7053 -85.0169 219° Southwest 171 197 8,000 -49 Level Chicago Center
Wed 03:51:04 PM 42.6608 -85.0672 220° Southwest 173 199 7,900  Descending Chicago Center
Wed 03:52:06 PM 42.6258 -85.1089 221° Southwest 170 196 8,000 48 Climbing Chicago Center
Wed 03:53:08 PM 42.5894 -85.1503 220° Southwest 170 196 8,000 -146 Level Chicago Center
Wed 03:54:09 PM 42.5511 -85.1903 218° Southwest 173 199 7,700 -390 Descending Chicago Center
Wed 03:55:11 PM 42.4986 -85.2036 191° South 190 219 7,200 -484 Descending Chicago Center
Wed 03:56:13 PM 42.4469 -85.2156 190° South 188 216 6,700 -532 Descending Chicago Center
Wed 03:57:15 PM 42.3961 -85.2306 192° South 187 215 6,100 -629 Descending Chicago Center
Wed 03:58:17 PM 42.3347 -85.2467 191° South 187 215 5,400 -581 Descending Chicago Center
Wed 03:59:19 PM 42.2883 -85.2611 193° South 177 204 4,900 -537 Descending Chicago Center
Wed 04:00:20 PM 42.2450 -85.2717 190° South 173 199 4,300 -488 Descending Chicago Center
Wed 04:01:22 PM 42.2036 -85.2972 205° Southwest 165 190 3,900 -484 Descending Chicago Center
Wed 04:02:24 PM 42.1558 -85.3356 211° Southwest 167 192 3,300 -484 Descending Chicago Center
Wed 04:03:26 PM 42.1186 -85.3664 212° Southwest 162 186 2,900 -194 Descending Chicago Center
Wed 04:04:28 PM 42.0844 -85.3933 210° Southwest 153 176 2,900  Level Chicago Center
Wed 04:05:30 PM 42.0706 -85.4347 246° West 144 166 2,900  Level Chicago Center
Wed 04:06:32 PM 42.0592 -85.4792 251° West 134 154 2,900  Level Chicago Center
Wed 04:07:34 PM 42.0839 -85.5131 315° West 134 154 2,900  Level Chicago Center
Wed 04:08:36 PM 42.1264 -85.5303 343° North 133 153 2,900 -242 Level Chicago Center
Wed 04:09:38 PM 42.1536 -85.5333 355° North 111 128 2,400 -484 Descending Chicago Center
Wed 04:10:40 PM 42.1808 -85.5403 349° North 100 115 1,900 -532 Descending Chicago Center
Wed 04:11:42 PM 42.2103 -85.5464 351° North 103 119 1,300 -581 Descending Chicago Center

Login

Don't have an account? Register now (free) for customized features, flight alerts, and more!